»·PEaware :: SWA3510 KLAS-KPHX

SWA3510 :: KLAS-KPHX

FLIGHT INFORMATION

Flight Status: Arrived
Operator:
Southwest Airlines
More flights by this operator :: More flights under this callsign
Pilot: Anonymous 34646 (34646)
Aircraft: BOEING 737-800
(B738)
More flights by this aircraft type
Origin: KLAS Harry Reid Intl
United States
Destination: KPHX Phoenix Sky Harbor Intl
United States
More flights between these airports :: More routes between these airports
Route: RASLR1 ZAYNE WOTRO BRUSR1
File this flight plan on PilotEdge
Remarks: RMK / SIMBRIEF
Altitude:
(Current/Filed)
29,000ft
Speed:
(Current/Filed)
451kts
Departed: 12-May-21 09:05 PM
Arrived: 12-May-21 09:51 PM
Distance/Time
Traveled:
222nm/0:46
Distance/Time
To Go:
Arrived

Flight Plot

Page will automatically refresh every two minutes.

Flight plan parsing failed; only flown route is shown


Map Options




Map Legend


Flown Route
Filed Route
Departure Airport
Arrival Airport
Navaid (VOR, NDB)
Fix

Horizontal Profiles

Position Reports

Time Latitude Longitude Heading Altitude Ground
Speed
12-May-21 20:43 36.079845 -115.147154 55 2189ft 0kts
12-May-21 20:44 36.079845 -115.147154 55 2189ft 0kts
12-May-21 20:45 36.079845 -115.147154 55 2189ft 0kts
12-May-21 20:46 36.079845 -115.147154 55 2189ft 0kts
12-May-21 20:47 36.079845 -115.147154 55 2189ft 0kts
12-May-21 20:48 36.079845 -115.147154 55 2189ft 0kts
12-May-21 20:49 36.079845 -115.147154 55 2189ft 0kts
12-May-21 20:50 36.079717 -115.147381 55 2189ft 2kts
12-May-21 20:51 36.079486 -115.147787 54 2189ft 0kts
12-May-21 20:52 36.079486 -115.147787 54 2189ft 0kts
12-May-21 20:53 36.079486 -115.147787 54 2189ft 0kts
12-May-21 20:54 36.079499 -115.147675 106 2189ft 1kts
12-May-21 20:55 36.078453 -115.146233 96 2189ft 9kts
12-May-21 20:56 36.078268 -115.141471 91 2189ft 17kts
12-May-21 20:57 36.078271 -115.135649 90 2189ft 19kts
12-May-21 20:58 36.078286 -115.129320 89 2189ft 16kts
12-May-21 20:59 36.078281 -115.123578 89 2189ft 3kts
12-May-21 21:00 36.077556 -115.121600 131 2189ft 0kts
12-May-21 21:01 36.077556 -115.121600 131 2189ft 0kts
12-May-21 21:02 36.077556 -115.121600 131 2189ft 0kts
12-May-21 21:03 36.076468 -115.121423 244 2189ft 9kts
12-May-21 21:04 36.076370 -115.145956 268 2229ft 174kts
12-May-21 21:05 36.075183 -115.210798 260 4443ft 227kts
12-May-21 21:06 36.044058 -115.273349 196 7457ft 241kts
12-May-21 21:07 35.971946 -115.273526 146 8505ft 293kts
12-May-21 21:08 35.912219 -115.202519 129 11423ft 318kts
12-May-21 21:09 35.863880 -115.098502 112 13335ft 369kts
12-May-21 21:10 35.832939 -114.974019 106 15932ft 388kts
12-May-21 21:11 35.801579 -114.844131 106 18330ft 405kts
12-May-21 21:12 35.769092 -114.708385 106 19781ft 418kts
12-May-21 21:13 35.735055 -114.570040 107 21987ft 429kts
12-May-21 21:14 35.694568 -114.429281 122 23705ft 444kts
12-May-21 21:15 35.606394 -114.321638 141 25434ft 452kts
12-May-21 21:16 35.509898 -114.220610 140 27007ft 461kts
12-May-21 21:17 35.412333 -114.118185 141 28888ft 458kts
12-May-21 21:18 35.318572 -114.012049 126 29124ft 461kts
12-May-21 21:19 35.275757 -113.864231 104 29149ft 465kts
12-May-21 21:20 35.244135 -113.711154 105 29149ft 465kts
12-May-21 21:21 35.213847 -113.556956 103 29146ft 465kts
12-May-21 21:22 35.184633 -113.403347 103 29161ft 465kts
12-May-21 21:23 35.135797 -113.258797 124 29179ft 454kts
12-May-21 21:24 35.067768 -113.135996 125 29116ft 429kts
12-May-21 21:25 35.001269 -113.016153 125 28220ft 425kts
12-May-21 21:26 34.935329 -112.897629 125 27342ft 420kts
12-May-21 21:27 34.870524 -112.780729 124 26488ft 415kts
12-May-21 21:28 34.806237 -112.664914 125 25639ft 409kts
12-May-21 21:29 34.742259 -112.550980 125 24787ft 405kts
12-May-21 21:30 34.670257 -112.447762 141 23656ft 402kts
12-May-21 21:31 34.584360 -112.364409 142 21945ft 389kts
12-May-21 21:32 34.500762 -112.283096 142 20301ft 381kts
12-May-21 21:33 34.412135 -112.220817 166 18690ft 367kts
12-May-21 21:34 34.313515 -112.195549 169 17002ft 357kts
12-May-21 21:35 34.217270 -112.170871 168 15364ft 350kts
12-May-21 21:36 34.123046 -112.146587 168 13744ft 330kts
12-May-21 21:37 34.034685 -112.142300 186 12407ft 320kts
12-May-21 21:38 33.947132 -112.152625 185 11144ft 313kts
12-May-21 21:39 33.862605 -112.166151 192 9966ft 289kts
12-May-21 21:40 33.784257 -112.183341 191 8811ft 280kts
12-May-21 21:41 33.711880 -112.198633 191 7770ft 250kts
12-May-21 21:42 33.646817 -112.212366 191 6850ft 231kts
12-May-21 21:43 33.584001 -112.225619 191 5992ft 227kts
12-May-21 21:44 33.521978 -112.238982 191 5263ft 221kts
12-May-21 21:45 33.465589 -112.249503 172 4564ft 189kts
12-May-21 21:46 33.429536 -112.207417 104 3961ft 189kts
12-May-21 21:47 33.428902 -112.143852 91 3028ft 186kts
12-May-21 21:48 33.428891 -112.086009 90 2106ft 163kts
12-May-21 21:49 33.428834 -112.032894 90 1262ft 158kts
12-May-21 21:50 33.429434 -112.004929 48 1143ft 10kts
12-May-21 21:51 33.431173 -112.003316 0 1143ft 8kts
12-May-21 21:52 33.432834 -112.002701 89 1143ft 8kts
12-May-21 21:53 33.432853 -111.998000 89 1143ft 18kts
12-May-21 21:54 33.433646 -111.995382 359 1143ft 3kts
12-May-21 21:55 33.434053 -111.994968 91 1143ft 0kts
12-May-21 21:56 33.434053 -111.994967 91 1143ft 0kts
12-May-21 21:57 33.434053 -111.994967 91 1143ft 0kts

Navigation Log

Ident Type
Flight plan parsing failed, navigation log unavailable